sensor_id;sensor_type;location;lat;lon;timestamp;temperature;humidity
17815;DHT22;9031;50.974;11.330;2022-08-05T00:00:34;22.50;99.90
17815;DHT22;9031;50.974;11.330;2022-08-05T00:03:00;22.60;99.90
17815;DHT22;9031;50.974;11.330;2022-08-05T00:05:25;22.70;99.90
17815;DHT22;9031;50.974;11.330;2022-08-05T00:07:51;22.40;99.90
17815;DHT22;9031;50.974;11.330;2022-08-05T00:10:17;22.20;99.90
17815;DHT22;9031;50.974;11.330;2022-08-05T00:12:42;22.10;99.90
17815;DHT22;9031;50.974;11.330;2022-08-05T00:15:08;22.10;99.90
17815;DHT22;9031;50.974;11.330;2022-08-05T00:17:33;22.20;99.90
17815;DHT22;9031;50.974;11.330;2022-08-05T00:19:59;22.10;99.90
17815;DHT22;9031;50.974;11.330;2022-08-05T00:22:25;22.00;99.90
17815;DHT22;9031;50.974;11.330;2022-08-05T00:24:50;21.90;99.90
17815;DHT22;9031;50.974;11.330;2022-08-05T00:27:16;21.90;99.90
17815;DHT22;9031;50.974;11.330;2022-08-05T00:29:41;21.70;99.90
17815;DHT22;9031;50.974;11.330;2022-08-05T00:32:07;21.50;99.90
17815;DHT22;9031;50.974;11.330;2022-08-05T00:34:39;21.40;99.90
17815;DHT22;9031;50.974;11.330;2022-08-05T00:37:05;21.40;99.90
17815;DHT22;9031;50.974;11.330;2022-08-05T00:39:30;21.40;99.90
17815;DHT22;9031;50.974;11.330;2022-08-05T00:41:56;21.30;99.90
17815;DHT22;9031;50.974;11.330;2022-08-05T00:44:22;21.30;99.90
17815;DHT22;9031;50.974;11.330;2022-08-05T00:46:48;21.30;99.90
17815;DHT22;9031;50.974;11.330;2022-08-05T00:49:14;21.40;99.90
17815;DHT22;9031;50.974;11.330;2022-08-05T00:51:43;21.60;99.90
17815;DHT22;9031;50.974;11.330;2022-08-05T00:54:11;21.70;99.90
17815;DHT22;9031;50.974;11.330;2022-08-05T00:56:36;21.70;99.90
17815;DHT22;9031;50.974;11.330;2022-08-05T00:59:02;21.80;99.90
17815;DHT22;9031;50.974;11.330;2022-08-05T01:01:27;21.90;99.90
17815;DHT22;9031;50.974;11.330;2022-08-05T01:03:53;21.90;99.90
17815;DHT22;9031;50.974;11.330;2022-08-05T01:06:18;21.90;99.90
17815;DHT22;9031;50.974;11.330;2022-08-05T01:08:44;22.00;99.90
17815;DHT22;9031;50.974;11.330;2022-08-05T01:11:36;22.00;99.90
17815;DHT22;9031;50.974;11.330;2022-08-05T01:14:12;22.00;99.90
17815;DHT22;9031;50.974;11.330;2022-08-05T01:16:50;22.10;99.90
17815;DHT22;9031;50.974;11.330;2022-08-05T01:19:32;21.90;99.90
17815;DHT22;9031;50.974;11.330;2022-08-05T01:25:23;21.80;99.90
17815;DHT22;9031;50.974;11.330;2022-08-05T01:30:50;21.70;99.90
17815;DHT22;9031;50.974;11.330;2022-08-05T01:33:18;21.50;99.90
17815;DHT22;9031;50.974;11.330;2022-08-05T01:35:46;21.40;99.90
17815;DHT22;9031;50.974;11.330;2022-08-05T01:38:14;21.30;99.90
17815;DHT22;9031;50.974;11.330;2022-08-05T01:40:41;21.30;99.90
17815;DHT22;9031;50.974;11.330;2022-08-05T01:43:08;21.30;99.90
17815;DHT22;9031;50.974;11.330;2022-08-05T01:45:34;21.20;99.90
17815;DHT22;9031;50.974;11.330;2022-08-05T01:48:02;21.10;99.90
17815;DHT22;9031;50.974;11.330;2022-08-05T01:50:38;21.00;99.90
17815;DHT22;9031;50.974;11.330;2022-08-05T01:53:07;20.80;99.90
17815;DHT22;9031;50.974;11.330;2022-08-05T01:55:36;20.60;99.90
17815;DHT22;9031;50.974;11.330;2022-08-05T01:58:04;20.50;99.90
17815;DHT22;9031;50.974;11.330;2022-08-05T02:00:30;20.60;99.90
17815;DHT22;9031;50.974;11.330;2022-08-05T02:03:02;20.80;99.90
17815;DHT22;9031;50.974;11.330;2022-08-05T02:05:31;20.90;99.90
17815;DHT22;9031;50.974;11.330;2022-08-05T02:07:58;21.00;99.90
17815;DHT22;9031;50.974;11.330;2022-08-05T02:10:26;21.00;99.90
17815;DHT22;9031;50.974;11.330;2022-08-05T02:13:17;21.10;99.90
17815;DHT22;9031;50.974;11.330;2022-08-05T02:15:44;21.10;99.90
17815;DHT22;9031;50.974;11.330;2022-08-05T02:18:17;21.20;99.90
17815;DHT22;9031;50.974;11.330;2022-08-05T02:20:54;21.30;99.90
17815;DHT22;9031;50.974;11.330;2022-08-05T02:23:23;21.20;99.90
17815;DHT22;9031;50.974;11.330;2022-08-05T02:25:51;21.10;99.90
17815;DHT22;9031;50.974;11.330;2022-08-05T02:28:23;21.10;99.90
17815;DHT22;9031;50.974;11.330;2022-08-05T02:30:55;20.80;99.90
17815;DHT22;9031;50.974;11.330;2022-08-05T02:33:23;20.70;99.90
17815;DHT22;9031;50.974;11.330;2022-08-05T02:35:50;20.70;99.90
17815;DHT22;9031;50.974;11.330;2022-08-05T02:38:17;20.70;99.90
17815;DHT22;9031;50.974;11.330;2022-08-05T02:40:44;20.30;99.90
17815;DHT22;9031;50.974;11.330;2022-08-05T02:43:11;20.20;99.90
17815;DHT22;9031;50.974;11.330;2022-08-05T02:45:38;20.30;99.90
17815;DHT22;9031;50.974;11.330;2022-08-05T02:48:06;20.60;99.90
17815;DHT22;9031;50.974;11.330;2022-08-05T02:50:33;20.70;99.90
17815;DHT22;9031;50.974;11.330;2022-08-05T02:52:59;20.60;99.90
17815;DHT22;9031;50.974;11.330;2022-08-05T02:55:26;20.60;99.90
17815;DHT22;9031;50.974;11.330;2022-08-05T02:57:53;20.80;99.90
17815;DHT22;9031;50.974;11.330;2022-08-05T03:00:19;20.90;99.90
17815;DHT22;9031;50.974;11.330;2022-08-05T03:02:46;21.00;99.90
17815;DHT22;9031;50.974;11.330;2022-08-05T03:05:13;21.10;99.90
17815;DHT22;9031;50.974;11.330;2022-08-05T03:07:40;21.10;99.90
17815;DHT22;9031;50.974;11.330;2022-08-05T03:10:07;20.90;99.90
17815;DHT22;9031;50.974;11.330;2022-08-05T03:12:37;20.90;99.90
17815;DHT22;9031;50.974;11.330;2022-08-05T03:15:05;21.00;99.90
17815;DHT22;9031;50.974;11.330;2022-08-05T03:17:32;21.00;99.90
17815;DHT22;9031;50.974;11.330;2022-08-05T03:19:58;21.00;99.90
17815;DHT22;9031;50.974;11.330;2022-08-05T03:22:23;21.10;99.90
17815;DHT22;9031;50.974;11.330;2022-08-05T03:24:50;21.10;99.90
17815;DHT22;9031;50.974;11.330;2022-08-05T03:27:16;21.20;99.90
17815;DHT22;9031;50.974;11.330;2022-08-05T03:29:42;21.30;99.90
17815;DHT22;9031;50.974;11.330;2022-08-05T03:32:08;21.40;99.90
17815;DHT22;9031;50.974;11.330;2022-08-05T03:34:35;21.40;99.90
17815;DHT22;9031;50.974;11.330;2022-08-05T03:37:01;21.30;99.90
17815;DHT22;9031;50.974;11.330;2022-08-05T03:39:27;21.30;99.90
17815;DHT22;9031;50.974;11.330;2022-08-05T03:41:56;21.40;99.90
17815;DHT22;9031;50.974;11.330;2022-08-05T03:44:22;21.60;99.90
17815;DHT22;9031;50.974;11.330;2022-08-05T03:46:48;21.90;99.90
17815;DHT22;9031;50.974;11.330;2022-08-05T03:49:14;22.00;99.90
17815;DHT22;9031;50.974;11.330;2022-08-05T03:51:55;22.00;99.90
17815;DHT22;9031;50.974;11.330;2022-08-05T03:54:49;22.10;99.90
17815;DHT22;9031;50.974;11.330;2022-08-05T03:57:17;22.10;99.90
17815;DHT22;9031;50.974;11.330;2022-08-05T04:00:08;22.20;99.90
17815;DHT22;9031;50.974;11.330;2022-08-05T04:02:36;22.30;99.90
17815;DHT22;9031;50.974;11.330;2022-08-05T04:05:02;22.20;99.90
17815;DHT22;9031;50.974;11.330;2022-08-05T04:07:28;22.30;99.90
17815;DHT22;9031;50.974;11.330;2022-08-05T04:09:55;22.30;99.90
17815;DHT22;9031;50.974;11.330;2022-08-05T04:12:20;22.30;99.90
17815;DHT22;9031;50.974;11.330;2022-08-05T04:14:46;22.50;99.90
17815;DHT22;9031;50.974;11.330;2022-08-05T04:17:13;22.40;99.90
17815;DHT22;9031;50.974;11.330;2022-08-05T04:19:43;22.40;99.90
17815;DHT22;9031;50.974;11.330;2022-08-05T04:22:09;22.30;99.90
17815;DHT22;9031;50.974;11.330;2022-08-05T04:24:40;22.40;99.90
17815;DHT22;9031;50.974;11.330;2022-08-05T04:27:05;22.20;99.90
17815;DHT22;9031;50.974;11.330;2022-08-05T04:29:31;22.20;99.90
17815;DHT22;9031;50.974;11.330;2022-08-05T04:31:56;22.20;99.90
17815;DHT22;9031;50.974;11.330;2022-08-05T04:34:22;22.30;99.90
17815;DHT22;9031;50.974;11.330;2022-08-05T04:36:48;22.50;99.90
17815;DHT22;9031;50.974;11.330;2022-08-05T04:39:13;22.50;99.90
17815;DHT22;9031;50.974;11.330;2022-08-05T04:41:39;22.60;99.90
17815;DHT22;9031;50.974;11.330;2022-08-05T04:44:05;22.70;99.90
17815;DHT22;9031;50.974;11.330;2022-08-05T04:46:30;22.70;99.90
17815;DHT22;9031;50.974;11.330;2022-08-05T04:48:56;22.90;99.90
17815;DHT22;9031;50.974;11.330;2022-08-05T04:51:21;23.00;99.90
17815;DHT22;9031;50.974;11.330;2022-08-05T04:53:47;23.20;99.90
17815;DHT22;9031;50.974;11.330;2022-08-05T04:56:12;23.30;99.90
17815;DHT22;9031;50.974;11.330;2022-08-05T04:58:39;23.50;99.90
17815;DHT22;9031;50.974;11.330;2022-08-05T05:01:05;23.70;99.90
17815;DHT22;9031;50.974;11.330;2022-08-05T05:03:31;23.80;99.90
17815;DHT22;9031;50.974;11.330;2022-08-05T05:05:56;23.60;99.90
17815;DHT22;9031;50.974;11.330;2022-08-05T05:08:21;23.40;99.90
17815;DHT22;9031;50.974;11.330;2022-08-05T05:10:48;23.40;99.90
17815;DHT22;9031;50.974;11.330;2022-08-05T05:13:15;23.50;99.90
17815;DHT22;9031;50.974;11.330;2022-08-05T05:15:42;23.60;99.90
17815;DHT22;9031;50.974;11.330;2022-08-05T05:18:08;23.70;99.90
17815;DHT22;9031;50.974;11.330;2022-08-05T05:20:34;23.50;99.90
17815;DHT22;9031;50.974;11.330;2022-08-05T05:23:01;23.40;99.90
17815;DHT22;9031;50.974;11.330;2022-08-05T05:25:29;23.40;99.90
17815;DHT22;9031;50.974;11.330;2022-08-05T05:27:54;23.40;99.90
17815;DHT22;9031;50.974;11.330;2022-08-05T05:30:20;23.60;99.90
17815;DHT22;9031;50.974;11.330;2022-08-05T05:32:46;23.60;99.90
17815;DHT22;9031;50.974;11.330;2022-08-05T05:35:12;23.60;99.90
17815;DHT22;9031;50.974;11.330;2022-08-05T05:37:52;23.70;99.90
17815;DHT22;9031;50.974;11.330;2022-08-05T05:40:18;23.70;99.90
17815;DHT22;9031;50.974;11.330;2022-08-05T05:42:48;23.80;99.90
17815;DHT22;9031;50.974;11.330;2022-08-05T05:45:13;24.00;99.90
17815;DHT22;9031;50.974;11.330;2022-08-05T05:47:39;24.00;99.90
17815;DHT22;9031;50.974;11.330;2022-08-05T05:50:10;24.00;99.90
17815;DHT22;9031;50.974;11.330;2022-08-05T05:52:36;23.90;99.90
17815;DHT22;9031;50.974;11.330;2022-08-05T05:55:07;23.80;99.90
17815;DHT22;9031;50.974;11.330;2022-08-05T05:57:37;23.60;99.90
17815;DHT22;9031;50.974;11.330;2022-08-05T06:00:08;23.60;99.90
17815;DHT22;9031;50.974;11.330;2022-08-05T06:02:34;23.60;99.90
17815;DHT22;9031;50.974;11.330;2022-08-05T06:05:00;23.60;99.90
17815;DHT22;9031;50.974;11.330;2022-08-05T06:07:25;23.60;99.90
17815;DHT22;9031;50.974;11.330;2022-08-05T06:09:51;23.80;99.90
17815;DHT22;9031;50.974;11.330;2022-08-05T06:12:17;23.90;99.90
17815;DHT22;9031;50.974;11.330;2022-08-05T06:14:42;23.90;99.90
17815;DHT22;9031;50.974;11.330;2022-08-05T06:17:09;24.00;99.90
17815;DHT22;9031;50.974;11.330;2022-08-05T06:19:34;24.00;99.90
17815;DHT22;9031;50.974;11.330;2022-08-05T06:22:00;24.00;99.90
17815;DHT22;9031;50.974;11.330;2022-08-05T06:24:26;24.00;99.90
17815;DHT22;9031;50.974;11.330;2022-08-05T06:26:51;24.20;99.90
17815;DHT22;9031;50.974;11.330;2022-08-05T06:29:17;24.20;99.90
17815;DHT22;9031;50.974;11.330;2022-08-05T06:31:43;24.30;99.90
17815;DHT22;9031;50.974;11.330;2022-08-05T06:34:08;24.40;99.90
17815;DHT22;9031;50.974;11.330;2022-08-05T06:36:34;24.50;99.90
17815;DHT22;9031;50.974;11.330;2022-08-05T06:38:59;24.70;99.90
17815;DHT22;9031;50.974;11.330;2022-08-05T06:41:25;24.80;99.90
17815;DHT22;9031;50.974;11.330;2022-08-05T06:43:50;24.70;99.90
17815;DHT22;9031;50.974;11.330;2022-08-05T06:46:16;24.90;99.90
17815;DHT22;9031;50.974;11.330;2022-08-05T06:48:41;25.00;99.90
17815;DHT22;9031;50.974;11.330;2022-08-05T06:51:07;25.00;99.90
17815;DHT22;9031;50.974;11.330;2022-08-05T06:53:32;25.30;99.90
17815;DHT22;9031;50.974;11.330;2022-08-05T06:56:00;25.60;99.90
17815;DHT22;9031;50.974;11.330;2022-08-05T06:58:27;25.70;99.90
17815;DHT22;9031;50.974;11.330;2022-08-05T07:00:53;25.70;99.90
17815;DHT22;9031;50.974;11.330;2022-08-05T07:03:18;25.70;99.90
17815;DHT22;9031;50.974;11.330;2022-08-05T07:05:44;26.00;99.90
17815;DHT22;9031;50.974;11.330;2022-08-05T07:08:10;26.20;99.90
17815;DHT22;9031;50.974;11.330;2022-08-05T07:10:36;26.00;99.90
17815;DHT22;9031;50.974;11.330;2022-08-05T07:13:02;25.60;99.90
17815;DHT22;9031;50.974;11.330;2022-08-05T07:15:50;25.40;99.90
17815;DHT22;9031;50.974;11.330;2022-08-05T07:18:35;25.60;99.90
17815;DHT22;9031;50.974;11.330;2022-08-05T07:21:00;25.90;99.90
17815;DHT22;9031;50.974;11.330;2022-08-05T07:23:26;26.10;99.90
17815;DHT22;9031;50.974;11.330;2022-08-05T07:25:51;26.30;99.90
17815;DHT22;9031;50.974;11.330;2022-08-05T07:28:17;26.60;99.90
17815;DHT22;9031;50.974;11.330;2022-08-05T07:30:42;26.80;99.90
17815;DHT22;9031;50.974;11.330;2022-08-05T07:33:11;27.10;99.90
17815;DHT22;9031;50.974;11.330;2022-08-05T07:35:37;27.20;99.90
17815;DHT22;9031;50.974;11.330;2022-08-05T07:38:03;27.30;99.90
17815;DHT22;9031;50.974;11.330;2022-08-05T07:40:28;27.40;99.90
17815;DHT22;9031;50.974;11.330;2022-08-05T07:42:54;27.60;99.90
17815;DHT22;9031;50.974;11.330;2022-08-05T07:45:20;27.90;99.90
17815;DHT22;9031;50.974;11.330;2022-08-05T07:47:45;27.90;99.90
17815;DHT22;9031;50.974;11.330;2022-08-05T07:50:11;28.40;99.90
17815;DHT22;9031;50.974;11.330;2022-08-05T07:52:41;28.90;99.90
17815;DHT22;9031;50.974;11.330;2022-08-05T07:55:08;29.30;99.90
17815;DHT22;9031;50.974;11.330;2022-08-05T07:57:34;29.10;99.90
17815;DHT22;9031;50.974;11.330;2022-08-05T08:00:00;29.10;99.90
17815;DHT22;9031;50.974;11.330;2022-08-05T08:02:27;29.40;99.90
17815;DHT22;9031;50.974;11.330;2022-08-05T08:04:54;29.60;99.90
17815;DHT22;9031;50.974;11.330;2022-08-05T08:07:20;29.40;99.90
17815;DHT22;9031;50.974;11.330;2022-08-05T08:09:46;29.10;99.90
17815;DHT22;9031;50.974;11.330;2022-08-05T08:12:12;28.70;99.90
17815;DHT22;9031;50.974;11.330;2022-08-05T08:14:38;28.40;99.90
17815;DHT22;9031;50.974;11.330;2022-08-05T08:17:04;28.10;99.90
17815;DHT22;9031;50.974;11.330;2022-08-05T08:19:41;27.70;99.90
17815;DHT22;9031;50.974;11.330;2022-08-05T08:22:07;27.30;99.90
17815;DHT22;9031;50.974;11.330;2022-08-05T08:24:33;27.00;99.90
17815;DHT22;9031;50.974;11.330;2022-08-05T08:26:59;26.30;99.90
17815;DHT22;9031;50.974;11.330;2022-08-05T08:29:24;25.90;99.90
17815;DHT22;9031;50.974;11.330;2022-08-05T08:31:51;25.60;99.90
17815;DHT22;9031;50.974;11.330;2022-08-05T08:34:17;25.30;99.90
17815;DHT22;9031;50.974;11.330;2022-08-05T08:36:43;25.20;99.90
17815;DHT22;9031;50.974;11.330;2022-08-05T08:39:09;25.30;99.90
17815;DHT22;9031;50.974;11.330;2022-08-05T08:41:36;25.40;99.90
17815;DHT22;9031;50.974;11.330;2022-08-05T08:44:06;25.50;99.90
17815;DHT22;9031;50.974;11.330;2022-08-05T08:46:33;25.70;99.90
17815;DHT22;9031;50.974;11.330;2022-08-05T08:49:00;25.70;99.90
17815;DHT22;9031;50.974;11.330;2022-08-05T08:51:31;25.90;99.90
17815;DHT22;9031;50.974;11.330;2022-08-05T08:53:57;26.20;99.90
17815;DHT22;9031;50.974;11.330;2022-08-05T08:56:23;26.80;99.90
17815;DHT22;9031;50.974;11.330;2022-08-05T08:58:49;27.30;99.90
17815;DHT22;9031;50.974;11.330;2022-08-05T09:01:16;28.20;99.90
17815;DHT22;9031;50.974;11.330;2022-08-05T09:03:46;28.30;99.90
17815;DHT22;9031;50.974;11.330;2022-08-05T09:06:12;28.70;99.90
17815;DHT22;9031;50.974;11.330;2022-08-05T09:08:37;28.90;99.90
17815;DHT22;9031;50.974;11.330;2022-08-05T09:11:03;29.00;99.90
17815;DHT22;9031;50.974;11.330;2022-08-05T09:13:29;28.70;99.90
17815;DHT22;9031;50.974;11.330;2022-08-05T09:15:55;28.20;99.90
17815;DHT22;9031;50.974;11.330;2022-08-05T09:18:20;28.10;99.90
17815;DHT22;9031;50.974;11.330;2022-08-05T09:20:46;27.90;99.90
17815;DHT22;9031;50.974;11.330;2022-08-05T09:23:16;27.60;99.90
17815;DHT22;9031;50.974;11.330;2022-08-05T09:25:44;27.50;99.90
17815;DHT22;9031;50.974;11.330;2022-08-05T09:28:13;27.60;99.90
17815;DHT22;9031;50.974;11.330;2022-08-05T09:30:44;27.80;99.90
17815;DHT22;9031;50.974;11.330;2022-08-05T09:33:16;28.20;99.90
17815;DHT22;9031;50.974;11.330;2022-08-05T09:35:55;28.80;99.90
17815;DHT22;9031;50.974;11.330;2022-08-05T09:38:20;28.80;99.90
17815;DHT22;9031;50.974;11.330;2022-08-05T09:40:46;29.00;99.90
17815;DHT22;9031;50.974;11.330;2022-08-05T09:43:31;29.00;99.90
17815;DHT22;9031;50.974;11.330;2022-08-05T09:45:58;29.40;99.90
17815;DHT22;9031;50.974;11.330;2022-08-05T09:48:29;29.90;99.90
17815;DHT22;9031;50.974;11.330;2022-08-05T09:51:07;29.90;99.90
17815;DHT22;9031;50.974;11.330;2022-08-05T09:53:52;30.20;99.90
17815;DHT22;9031;50.974;11.330;2022-08-05T09:56:32;30.70;99.90
17815;DHT22;9031;50.974;11.330;2022-08-05T09:59:05;30.70;99.90
17815;DHT22;9031;50.974;11.330;2022-08-05T10:01:32;30.60;99.90
17815;DHT22;9031;50.974;11.330;2022-08-05T10:04:02;30.20;99.90
17815;DHT22;9031;50.974;11.330;2022-08-05T10:06:29;30.10;99.90
17815;DHT22;9031;50.974;11.330;2022-08-05T10:08:56;30.50;99.90
17815;DHT22;9031;50.974;11.330;2022-08-05T10:11:33;31.10;99.90
17815;DHT22;9031;50.974;11.330;2022-08-05T10:13:59;30.60;99.90
17815;DHT22;9031;50.974;11.330;2022-08-05T10:16:44;30.30;99.90
17815;DHT22;9031;50.974;11.330;2022-08-05T10:19:10;31.10;99.90
17815;DHT22;9031;50.974;11.330;2022-08-05T10:21:38;31.70;99.90
17815;DHT22;9031;50.974;11.330;2022-08-05T10:24:04;32.50;99.90
17815;DHT22;9031;50.974;11.330;2022-08-05T10:26:30;32.30;99.90
17815;DHT22;9031;50.974;11.330;2022-08-05T10:28:56;31.90;99.90
17815;DHT22;9031;50.974;11.330;2022-08-05T10:31:22;31.50;99.90
17815;DHT22;9031;50.974;11.330;2022-08-05T10:33:48;31.20;99.90
17815;DHT22;9031;50.974;11.330;2022-08-05T10:36:14;30.80;99.90
17815;DHT22;9031;50.974;11.330;2022-08-05T10:38:41;30.60;99.90
17815;DHT22;9031;50.974;11.330;2022-08-05T10:41:32;30.70;99.90
17815;DHT22;9031;50.974;11.330;2022-08-05T10:44:04;30.80;99.90
17815;DHT22;9031;50.974;11.330;2022-08-05T10:49:12;32.10;99.90
17815;DHT22;9031;50.974;11.330;2022-08-05T10:51:45;31.90;99.90
17815;DHT22;9031;50.974;11.330;2022-08-05T10:54:11;31.70;99.90
17815;DHT22;9031;50.974;11.330;2022-08-05T10:56:46;32.50;99.90
17815;DHT22;9031;50.974;11.330;2022-08-05T10:59:25;33.00;99.90
17815;DHT22;9031;50.974;11.330;2022-08-05T11:02:06;33.20;99.90
17815;DHT22;9031;50.974;11.330;2022-08-05T11:04:41;33.60;99.90
17815;DHT22;9031;50.974;11.330;2022-08-05T11:07:07;34.10;99.90
17815;DHT22;9031;50.974;11.330;2022-08-05T11:09:47;34.00;99.90
17815;DHT22;9031;50.974;11.330;2022-08-05T11:15:22;34.30;99.90
17815;DHT22;9031;50.974;11.330;2022-08-05T11:17:52;34.90;99.60
17815;DHT22;9031;50.974;11.330;2022-08-05T11:20:41;35.20;97.40
17815;DHT22;9031;50.974;11.330;2022-08-05T11:28:49;35.30;94.20
17815;DHT22;9031;50.974;11.330;2022-08-05T11:36:20;33.90;95.20
17815;DHT22;9031;50.974;11.330;2022-08-05T11:41:26;32.80;95.60
17815;DHT22;9031;50.974;11.330;2022-08-05T11:43:59;31.80;96.30
17815;DHT22;9031;50.974;11.330;2022-08-05T11:46:30;31.30;96.70
17815;DHT22;9031;50.974;11.330;2022-08-05T11:48:57;30.80;98.30
17815;DHT22;9031;50.974;11.330;2022-08-05T11:51:23;31.00;97.80
17815;DHT22;9031;50.974;11.330;2022-08-05T11:53:50;30.80;98.00
17815;DHT22;9031;50.974;11.330;2022-08-05T11:56:16;30.30;98.60
17815;DHT22;9031;50.974;11.330;2022-08-05T11:58:43;30.00;99.00
17815;DHT22;9031;50.974;11.330;2022-08-05T12:01:20;29.60;99.50
17815;DHT22;9031;50.974;11.330;2022-08-05T12:03:46;29.50;99.60
17815;DHT22;9031;50.974;11.330;2022-08-05T12:06:14;29.40;99.90
17815;DHT22;9031;50.974;11.330;2022-08-05T12:08:44;29.30;99.90
17815;DHT22;9031;50.974;11.330;2022-08-05T12:11:28;29.10;99.90
17815;DHT22;9031;50.974;11.330;2022-08-05T12:14:02;29.10;99.90
17815;DHT22;9031;50.974;11.330;2022-08-05T12:16:32;29.60;99.90
17815;DHT22;9031;50.974;11.330;2022-08-05T12:18:58;30.20;99.90
17815;DHT22;9031;50.974;11.330;2022-08-05T12:21:29;30.60;99.90
17815;DHT22;9031;50.974;11.330;2022-08-05T12:26:41;30.50;99.90
17815;DHT22;9031;50.974;11.330;2022-08-05T12:29:18;30.50;99.90
17815;DHT22;9031;50.974;11.330;2022-08-05T12:31:46;30.30;99.90
17815;DHT22;9031;50.974;11.330;2022-08-05T12:34:13;29.90;99.90
17815;DHT22;9031;50.974;11.330;2022-08-05T12:36:39;30.10;99.90
17815;DHT22;9031;50.974;11.330;2022-08-05T12:39:05;31.50;99.90
17815;DHT22;9031;50.974;11.330;2022-08-05T12:41:33;34.30;99.90
17815;DHT22;9031;50.974;11.330;2022-08-05T12:44:12;34.00;99.90
17815;DHT22;9031;50.974;11.330;2022-08-05T12:46:41;33.40;99.50
17815;DHT22;9031;50.974;11.330;2022-08-05T12:51:50;31.50;99.90
17815;DHT22;9031;50.974;11.330;2022-08-05T12:56:56;30.40;99.90
17815;DHT22;9031;50.974;11.330;2022-08-05T12:59:27;29.90;99.90
17815;DHT22;9031;50.974;11.330;2022-08-05T13:04:35;29.80;99.90
17815;DHT22;9031;50.974;11.330;2022-08-05T13:07:03;29.60;99.90
17815;DHT22;9031;50.974;11.330;2022-08-05T13:09:29;29.70;99.90
17815;DHT22;9031;50.974;11.330;2022-08-05T13:12:10;31.00;99.90
17815;DHT22;9031;50.974;11.330;2022-08-05T13:14:41;32.60;99.90
17815;DHT22;9031;50.974;11.330;2022-08-05T13:19:40;33.20;99.90
17815;DHT22;9031;50.974;11.330;2022-08-05T13:22:05;34.30;99.20
17815;DHT22;9031;50.974;11.330;2022-08-05T13:24:31;34.90;98.10
17815;DHT22;9031;50.974;11.330;2022-08-05T13:26:57;35.20;97.60
17815;DHT22;9031;50.974;11.330;2022-08-05T13:29:22;35.60;96.40
17815;DHT22;9031;50.974;11.330;2022-08-05T13:31:48;36.60;95.60
17815;DHT22;9031;50.974;11.330;2022-08-05T13:34:14;36.40;95.30
17815;DHT22;9031;50.974;11.330;2022-08-05T13:36:41;36.50;95.00
17815;DHT22;9031;50.974;11.330;2022-08-05T13:39:08;35.70;96.10
17815;DHT22;9031;50.974;11.330;2022-08-05T13:41:34;34.70;96.90
17815;DHT22;9031;50.974;11.330;2022-08-05T13:44:00;33.30;97.60
17815;DHT22;9031;50.974;11.330;2022-08-05T13:46:26;32.50;98.50
17815;DHT22;9031;50.974;11.330;2022-08-05T13:48:52;32.60;99.10
17815;DHT22;9031;50.974;11.330;2022-08-05T13:51:26;32.30;99.70
17815;DHT22;9031;50.974;11.330;2022-08-05T13:53:53;31.90;99.90
17815;DHT22;9031;50.974;11.330;2022-08-05T13:56:18;31.10;99.90
17815;DHT22;9031;50.974;11.330;2022-08-05T13:58:43;31.10;99.90
17815;DHT22;9031;50.974;11.330;2022-08-05T14:01:09;31.20;99.90
17815;DHT22;9031;50.974;11.330;2022-08-05T14:03:34;30.90;99.90
17815;DHT22;9031;50.974;11.330;2022-08-05T14:06:00;30.60;99.90
17815;DHT22;9031;50.974;11.330;2022-08-05T14:08:25;30.60;99.90
17815;DHT22;9031;50.974;11.330;2022-08-05T14:10:51;30.50;99.90
17815;DHT22;9031;50.974;11.330;2022-08-05T14:13:16;30.40;99.90
17815;DHT22;9031;50.974;11.330;2022-08-05T14:15:42;30.80;99.90
17815;DHT22;9031;50.974;11.330;2022-08-05T14:18:08;31.70;99.90
17815;DHT22;9031;50.974;11.330;2022-08-05T14:20:33;32.60;99.90
17815;DHT22;9031;50.974;11.330;2022-08-05T14:22:59;32.70;99.90
17815;DHT22;9031;50.974;11.330;2022-08-05T14:25:26;33.60;99.90
17815;DHT22;9031;50.974;11.330;2022-08-05T14:27:51;33.90;98.20
17815;DHT22;9031;50.974;11.330;2022-08-05T14:30:18;33.90;97.70
17815;DHT22;9031;50.974;11.330;2022-08-05T14:32:44;34.40;97.40
17815;DHT22;9031;50.974;11.330;2022-08-05T14:35:10;34.00;97.50
17815;DHT22;9031;50.974;11.330;2022-08-05T14:37:37;33.60;97.70
17815;DHT22;9031;50.974;11.330;2022-08-05T14:40:03;33.10;98.30
17815;DHT22;9031;50.974;11.330;2022-08-05T14:42:29;32.80;98.30
17815;DHT22;9031;50.974;11.330;2022-08-05T14:44:55;33.00;98.40
17815;DHT22;9031;50.974;11.330;2022-08-05T14:47:20;33.60;98.20
17815;DHT22;9031;50.974;11.330;2022-08-05T14:49:46;33.90;97.60
17815;DHT22;9031;50.974;11.330;2022-08-05T14:52:11;33.80;97.60
17815;DHT22;9031;50.974;11.330;2022-08-05T14:54:37;33.80;97.40
17815;DHT22;9031;50.974;11.330;2022-08-05T14:57:02;33.10;98.40
17815;DHT22;9031;50.974;11.330;2022-08-05T14:59:28;32.20;99.90
17815;DHT22;9031;50.974;11.330;2022-08-05T15:01:53;31.90;99.90
17815;DHT22;9031;50.974;11.330;2022-08-05T15:04:20;32.00;99.90
17815;DHT22;9031;50.974;11.330;2022-08-05T15:06:46;30.90;99.90
17815;DHT22;9031;50.974;11.330;2022-08-05T15:09:11;29.80;99.90
17815;DHT22;9031;50.974;11.330;2022-08-05T15:11:37;28.90;99.90
17815;DHT22;9031;50.974;11.330;2022-08-05T15:14:03;28.10;99.90
17815;DHT22;9031;50.974;11.330;2022-08-05T15:16:29;27.30;99.90
17815;DHT22;9031;50.974;11.330;2022-08-05T15:18:55;27.00;99.90
17815;DHT22;9031;50.974;11.330;2022-08-05T15:21:20;27.20;99.90
17815;DHT22;9031;50.974;11.330;2022-08-05T15:23:46;27.60;99.90
17815;DHT22;9031;50.974;11.330;2022-08-05T15:26:11;28.10;99.90
17815;DHT22;9031;50.974;11.330;2022-08-05T15:28:37;27.90;99.90
17815;DHT22;9031;50.974;11.330;2022-08-05T15:31:02;27.80;99.90
17815;DHT22;9031;50.974;11.330;2022-08-05T15:33:28;28.20;99.90
17815;DHT22;9031;50.974;11.330;2022-08-05T15:35:54;28.40;99.90
17815;DHT22;9031;50.974;11.330;2022-08-05T15:38:19;28.80;99.90
17815;DHT22;9031;50.974;11.330;2022-08-05T15:40:45;28.80;99.90
17815;DHT22;9031;50.974;11.330;2022-08-05T15:43:11;29.00;99.90
17815;DHT22;9031;50.974;11.330;2022-08-05T15:45:36;28.70;99.90
17815;DHT22;9031;50.974;11.330;2022-08-05T15:48:02;28.00;99.90
17815;DHT22;9031;50.974;11.330;2022-08-05T15:50:28;27.90;99.90
17815;DHT22;9031;50.974;11.330;2022-08-05T15:52:54;27.70;99.90
17815;DHT22;9031;50.974;11.330;2022-08-05T15:55:19;27.70;99.90
17815;DHT22;9031;50.974;11.330;2022-08-05T15:57:45;27.00;99.90
17815;DHT22;9031;50.974;11.330;2022-08-05T16:00:12;26.90;99.90
17815;DHT22;9031;50.974;11.330;2022-08-05T16:02:37;26.80;99.90
17815;DHT22;9031;50.974;11.330;2022-08-05T16:05:04;26.30;99.90
17815;DHT22;9031;50.974;11.330;2022-08-05T16:07:30;25.60;99.90
17815;DHT22;9031;50.974;11.330;2022-08-05T16:09:56;25.00;99.90
17815;DHT22;9031;50.974;11.330;2022-08-05T16:12:22;24.40;99.90